Time;durP1;ratioP1;P1;durP2;ratioP2;P2;SDS_P1;SDS_P2;PMS_P1;PMS_P2;Temp;Humidity;BMP_temperature;BMP_pressure;BME280_temperature;BME280_humidity;BME280_pressure;Samples;Min_cycle;Max_cycle;Signal;HPM_P1;HPM_P2
2022/05/15 00:01:32;;;;;;;2.10;2.00;;;10.40;99.90;;;;;;6203102;28;20210;-67
2022/05/15 00:04:40;;;;;;;2.00;2.00;;;10.50;99.90;;;;;;6279029;28;20236;-68
2022/05/15 00:07:46;;;;;;;2.17;2.08;;;10.50;99.90;;;;;;6260700;28;20603;-68
2022/05/15 00:10:52;;;;;;;2.20;2.20;;;10.50;99.90;;;;;;6279166;28;20228;-68
2022/05/15 00:13:58;;;;;;;2.00;1.90;;;10.50;99.90;;;;;;6278917;28;20682;-67
2022/05/15 00:17:04;;;;;;;3.17;2.92;;;10.40;99.90;;;;;;6277714;28;20208;-68
2022/05/15 00:20:14;;;;;;;2.17;2.05;;;10.40;99.90;;;;;;6279333;28;20640;-68
2022/05/15 00:23:22;;;;;;;1.60;1.60;;;10.50;99.90;;;;;;6278250;28;20242;-67
2022/05/15 00:26:27;;;;;;;1.30;1.30;;;10.40;99.90;;;;;;6275381;28;20643;-67
2022/05/15 00:29:33;;;;;;;1.40;1.40;;;10.50;99.90;;;;;;6274185;28;20253;-67
2022/05/15 00:32:39;;;;;;;1.25;1.25;;;10.50;99.90;;;;;;6272904;28;20223;-67
2022/05/15 00:35:48;;;;;;;1.20;1.20;;;10.50;99.90;;;;;;6275239;28;20231;-67
2022/05/15 00:38:53;;;;;;;1.50;1.50;;;10.50;99.90;;;;;;6274157;28;20726;-67
2022/05/15 00:41:59;;;;;;;1.25;1.25;;;10.50;99.90;;;;;;6274086;28;20207;-67
2022/05/15 00:45:06;;;;;;;1.40;1.30;;;10.50;99.90;;;;;;6273652;28;20227;-67
2022/05/15 00:48:14;;;;;;;1.23;1.23;;;10.50;99.90;;;;;;6274566;28;20232;-67
2022/05/15 00:51:26;;;;;;;5.07;1.40;;;10.40;99.90;;;;;;6279625;28;20610;-67
2022/05/15 00:54:35;;;;;;;1.20;1.20;;;10.50;99.90;;;;;;6274995;28;20605;-68
2022/05/15 00:57:47;;;;;;;1.30;1.30;;;10.50;99.90;;;;;;6274335;28;20243;-68
2022/05/15 01:00:53;;;;;;;1.30;1.30;;;10.40;99.90;;;;;;6274579;28;20212;-68
2022/05/15 01:04:01;;;;;;;1.38;1.27;;;10.40;99.90;;;;;;6273886;28;20231;-67
2022/05/15 01:07:08;;;;;;;1.23;1.23;;;10.40;99.90;;;;;;6273384;28;20564;-67
2022/05/15 01:10:14;;;;;;;1.23;1.23;;;10.40;99.90;;;;;;6255534;28;20200;-66
2022/05/15 01:13:22;;;;;;;1.50;1.50;;;10.40;99.90;;;;;;6272968;28;20608;-67
2022/05/15 01:16:28;;;;;;;3.40;1.30;;;10.40;99.90;;;;;;6256176;28;20219;-67
2022/05/15 01:19:38;;;;;;;2.92;1.67;;;10.40;99.90;;;;;;6271850;28;20587;-66
2022/05/15 01:22:45;;;;;;;1.20;1.20;;;10.40;99.90;;;;;;6273251;28;20617;-68
2022/05/15 01:25:51;;;;;;;1.60;1.50;;;10.40;99.90;;;;;;6273882;28;20214;-67
2022/05/15 01:28:59;;;;;;;2.13;1.20;;;10.40;99.90;;;;;;6273025;28;20715;-68
2022/05/15 01:32:07;;;;;;;1.63;1.63;;;10.40;99.90;;;;;;6273250;28;20656;-67
2022/05/15 01:35:15;;;;;;;1.42;1.42;;;10.40;99.90;;;;;;6271481;28;20708;-67
2022/05/15 01:38:23;;;;;;;1.30;1.30;;;10.40;99.90;;;;;;6271225;28;20236;-66
2022/05/15 01:41:28;;;;;;;1.58;1.58;;;10.30;99.90;;;;;;6273407;28;20208;-67
2022/05/15 01:44:34;;;;;;;1.35;1.35;;;10.30;99.90;;;;;;6254595;28;20240;-67
2022/05/15 01:47:41;;;;;;;1.40;1.40;;;10.30;99.90;;;;;;6271429;28;20227;-68
2022/05/15 01:50:46;;;;;;;1.45;1.45;;;10.20;99.90;;;;;;6273230;28;20214;-67
2022/05/15 01:54:00;;;;;;;1.70;1.60;;;10.10;99.90;;;;;;6254179;28;20235;-68
2022/05/15 01:57:06;;;;;;;1.65;1.65;;;10.20;99.90;;;;;;6254792;28;20245;-67
2022/05/15 02:00:16;;;;;;;1.40;1.40;;;10.30;99.90;;;;;;6255421;28;20211;-66
2022/05/15 02:03:24;;;;;;;1.48;1.48;;;10.30;99.90;;;;;;6270791;28;20227;-69
2022/05/15 02:06:30;;;;;;;1.77;1.60;;;10.30;99.90;;;;;;6255427;28;20651;-67
2022/05/15 02:09:37;;;;;;;1.58;1.50;;;10.40;99.90;;;;;;6254984;28;20394;-66
2022/05/15 02:12:43;;;;;;;1.65;1.55;;;10.40;99.90;;;;;;6271746;28;20238;-66
2022/05/15 02:15:50;;;;;;;1.60;1.60;;;10.50;99.90;;;;;;6272573;28;20223;-67
2022/05/15 02:18:56;;;;;;;1.38;1.38;;;10.40;99.90;;;;;;6273385;28;20235;-67
2022/05/15 02:22:01;;;;;;;2.92;1.10;;;10.50;99.90;;;;;;6254915;28;20204;-67
2022/05/15 02:25:12;;;;;;;1.02;1.02;;;10.50;99.90;;;;;;6271586;28;20229;-68
2022/05/15 02:28:20;;;;;;;1.20;1.20;;;10.50;99.90;;;;;;6253892;28;20236;-67
2022/05/15 02:31:26;;;;;;;0.90;0.90;;;10.50;99.90;;;;;;6254676;28;20608;-66
2022/05/15 02:34:31;;;;;;;1.10;1.10;;;10.50;99.90;;;;;;6270213;28;20231;-67
2022/05/15 02:37:41;;;;;;;1.17;1.00;;;10.50;99.90;;;;;;6254139;28;20236;-67
2022/05/15 02:40:49;;;;;;;0.88;0.88;;;10.40;99.90;;;;;;6272271;28;20208;-66
2022/05/15 02:43:54;;;;;;;0.90;0.90;;;10.40;99.90;;;;;;6253344;28;20717;-66
2022/05/15 02:46:59;;;;;;;0.82;0.82;;;10.40;99.90;;;;;;6270427;28;20218;-66
2022/05/15 02:53:30;;;;;;;0.85;0.85;;;10.30;99.90;;;;;;6269773;28;20311;-66
2022/05/15 02:56:38;;;;;;;0.77;0.77;;;10.30;99.90;;;;;;6270518;28;20234;-67
2022/05/15 02:59:44;;;;;;;1.10;0.90;;;10.30;99.90;;;;;;6269537;28;20242;-67
2022/05/15 03:02:49;;;;;;;1.02;0.88;;;10.30;99.90;;;;;;6264143;28;20231;-67
2022/05/15 03:05:55;;;;;;;1.00;1.00;;;10.20;99.90;;;;;;6253465;28;20215;-67
2022/05/15 03:09:00;;;;;;;0.90;0.90;;;10.10;99.90;;;;;;6269460;28;20227;-68
2022/05/15 03:12:08;;;;;;;0.80;0.80;;;10.10;99.90;;;;;;6269236;28;20234;-68
2022/05/15 03:15:15;;;;;;;0.70;0.70;;;10.10;99.90;;;;;;6271120;28;20204;-67
2022/05/15 03:18:21;;;;;;;0.70;0.70;;;10.10;99.90;;;;;;6252769;28;20262;-67
2022/05/15 03:21:32;;;;;;;0.90;0.70;;;10.20;99.90;;;;;;6271817;28;20204;-67
2022/05/15 03:24:39;;;;;;;0.70;0.70;;;10.10;99.90;;;;;;6269125;28;20232;-67
2022/05/15 03:27:46;;;;;;;0.75;0.75;;;10.20;99.90;;;;;;6270428;28;20246;-67
2022/05/15 03:30:51;;;;;;;1.27;0.80;;;10.20;99.90;;;;;;6269762;28;20254;-67
2022/05/15 03:33:56;;;;;;;0.80;0.80;;;10.10;99.90;;;;;;6270787;28;20224;-68
2022/05/15 03:37:02;;;;;;;0.80;0.80;;;10.10;99.90;;;;;;6270836;28;20226;-68
2022/05/15 03:40:14;;;;;;;0.77;0.77;;;10.00;99.90;;;;;;6252532;28;20208;-67
2022/05/15 03:43:22;;;;;;;0.65;0.65;;;10.10;99.90;;;;;;6269554;28;20250;-66
2022/05/15 03:46:28;;;;;;;0.65;0.65;;;10.10;99.90;;;;;;6270971;28;20211;-67
2022/05/15 03:49:33;;;;;;;0.77;0.77;;;10.10;99.90;;;;;;6269569;28;20232;-68
2022/05/15 03:52:39;;;;;;;1.02;0.90;;;10.10;99.90;;;;;;6269365;28;20238;-67
2022/05/15 03:55:44;;;;;;;0.60;0.60;;;10.10;99.90;;;;;;6253290;28;20616;-67
2022/05/15 03:58:51;;;;;;;0.60;0.60;;;10.10;99.90;;;;;;6270180;28;20235;-68
2022/05/15 04:01:56;;;;;;;0.70;0.70;;;10.20;99.90;;;;;;6272970;28;20200;-67
2022/05/15 04:05:06;;;;;;;0.73;0.73;;;10.20;99.90;;;;;;6273071;28;20236;-68
2022/05/15 04:08:16;;;;;;;0.80;0.80;;;10.30;99.90;;;;;;6273693;28;20590;-67
2022/05/15 04:11:22;;;;;;;0.60;0.60;;;10.20;99.90;;;;;;6257318;28;20224;-68
2022/05/15 04:14:30;;;;;;;0.90;0.90;;;10.20;99.20;;;;;;6275071;28;20235;-67
2022/05/15 04:17:41;;;;;;;0.80;0.80;;;10.40;99.50;;;;;;6274774;28;20234;-68
2022/05/15 04:20:47;;;;;;;0.70;0.70;;;10.40;99.90;;;;;;6257610;28;20537;-67
2022/05/15 04:23:53;;;;;;;0.82;0.82;;;10.40;99.50;;;;;;6273199;28;20729;-67
2022/05/15 04:26:59;;;;;;;0.80;0.80;;;10.50;98.80;;;;;;6274656;28;20542;-67
2022/05/15 04:30:08;;;;;;;1.75;0.80;;;10.50;99.10;;;;;;6274604;28;20208;-67
2022/05/15 04:33:17;;;;;;;0.70;0.70;;;10.50;98.10;;;;;;6274570;28;20223;-67
2022/05/15 04:36:25;;;;;;;0.63;0.63;;;10.50;98.30;;;;;;6275184;28;20232;-67
2022/05/15 04:39:33;;;;;;;0.70;0.70;;;10.60;98.50;;;;;;6274472;28;20239;-67
2022/05/15 04:42:39;;;;;;;0.63;0.63;;;10.60;98.40;;;;;;6274746;28;20581;-67
2022/05/15 04:45:45;;;;;;;0.60;0.60;;;10.50;97.20;;;;;;6275292;28;20259;-67
2022/05/15 04:48:51;;;;;;;0.70;0.70;;;10.50;97.60;;;;;;6274867;28;20329;-67
2022/05/15 04:51:56;;;;;;;0.80;0.80;;;10.50;97.30;;;;;;6275050;28;20208;-67
2022/05/15 04:55:02;;;;;;;1.48;0.70;;;10.40;98.00;;;;;;6274783;28;20231;-67
2022/05/15 04:58:10;;;;;;;0.68;0.68;;;10.50;97.30;;;;;;6275046;28;20686;-65
2022/05/15 05:01:17;;;;;;;0.68;0.68;;;10.40;96.80;;;;;;6290125;28;20210;-67
2022/05/15 05:04:23;;;;;;;0.80;0.80;;;10.50;97.10;;;;;;6290381;28;20258;-67
2022/05/15 05:07:29;;;;;;;0.70;0.70;;;10.50;96.60;;;;;;6279046;28;20238;-67
2022/05/15 05:10:35;;;;;;;0.75;0.57;;;10.50;96.60;;;;;;6273366;28;20201;-66
2022/05/15 05:13:41;;;;;;;0.60;0.60;;;10.50;96.40;;;;;;6273111;28;20232;-68
2022/05/15 05:16:47;;;;;;;0.70;0.70;;;10.60;96.50;;;;;;6274191;28;20613;-67
2022/05/15 05:19:53;;;;;;;0.60;0.60;;;10.70;97.00;;;;;;6273307;28;20338;-67
2022/05/15 05:23:00;;;;;;;0.50;0.50;;;10.70;96.40;;;;;;6273279;28;20239;-66
2022/05/15 05:26:06;;;;;;;0.60;0.60;;;10.70;96.30;;;;;;6274187;28;20215;-67
2022/05/15 05:29:11;;;;;;;0.63;0.63;;;10.70;96.60;;;;;;6272822;28;20239;-67
2022/05/15 05:32:23;;;;;;;0.60;0.60;;;10.70;96.40;;;;;;6255298;28;20215;-67
2022/05/15 05:35:29;;;;;;;0.80;0.80;;;10.70;96.40;;;;;;6273565;28;20219;-67
2022/05/15 05:38:34;;;;;;;1.75;0.70;;;10.80;97.30;;;;;;6272886;28;20231;-67
2022/05/15 05:41:39;;;;;;;0.60;0.60;;;10.90;97.20;;;;;;6273460;28;20211;-69
2022/05/15 05:44:44;;;;;;;0.75;0.75;;;11.00;96.00;;;;;;6273733;28;20228;-68
2022/05/15 05:47:52;;;;;;;0.70;0.70;;;11.20;96.00;;;;;;6275913;28;20239;-67
2022/05/15 05:50:58;;;;;;;0.60;0.60;;;11.30;97.00;;;;;;6276041;28;20207;-66
2022/05/15 05:54:03;;;;;;;0.60;0.60;;;11.40;95.70;;;;;;6272275;28;20238;-67
2022/05/15 05:57:11;;;;;;;0.75;0.75;;;11.50;94.90;;;;;;6272422;28;20212;-68
2022/05/15 06:00:21;;;;;;;0.73;0.68;;;11.70;94.10;;;;;;6273421;28;20234;-66
2022/05/15 06:06:50;;;;;;;0.85;0.77;;;11.90;93.60;;;;;;6274309;28;20228;-68
2022/05/15 06:09:56;;;;;;;3.85;0.80;;;12.00;93.90;;;;;;6255550;28;20228;-66
2022/05/15 06:13:01;;;;;;;0.50;0.50;;;12.10;93.40;;;;;;6273676;28;20246;-67
2022/05/15 06:16:07;;;;;;;0.68;0.68;;;12.10;92.70;;;;;;6273638;28;20211;-67
2022/05/15 06:19:14;;;;;;;0.60;0.60;;;12.20;92.60;;;;;;6272936;28;20248;-68
2022/05/15 06:22:19;;;;;;;0.77;0.77;;;12.30;93.00;;;;;;6272945;28;20210;-67
2022/05/15 06:25:25;;;;;;;0.60;0.60;;;12.40;93.00;;;;;;6271329;28;20207;-67
2022/05/15 06:28:34;;;;;;;1.85;0.60;;;12.50;92.50;;;;;;6254861;28;20365;-67
2022/05/15 06:31:39;;;;;;;0.70;0.70;;;12.70;92.30;;;;;;6273988;28;20560;-67
2022/05/15 06:34:46;;;;;;;0.60;0.60;;;12.80;92.90;;;;;;6272648;28;20563;-66
2022/05/15 06:37:52;;;;;;;0.57;0.50;;;12.80;90.70;;;;;;6272450;28;20552;-67
2022/05/15 06:40:57;;;;;;;1.55;0.70;;;12.80;91.80;;;;;;6255242;28;20228;-67
2022/05/15 06:44:03;;;;;;;0.50;0.50;;;12.90;90.40;;;;;;6271322;28;20234;-67
2022/05/15 06:47:09;;;;;;;0.63;0.63;;;12.90;88.50;;;;;;6271991;28;20234;-70
2022/05/15 06:50:16;;;;;;;0.47;0.47;;;13.00;90.30;;;;;;6272159;28;20673;-66
2022/05/15 06:53:22;;;;;;;0.70;0.70;;;13.00;87.10;;;;;;6271612;28;20245;-67
2022/05/15 06:59:50;;;;;;;0.60;0.60;;;12.80;85.30;;;;;;6271343;28;20240;-67
2022/05/15 07:02:56;;;;;;;1.17;0.90;;;12.80;85.50;;;;;;6271056;28;20708;-67
2022/05/15 07:06:03;;;;;;;0.50;0.50;;;13.10;88.60;;;;;;6271301;28;20214;-68
2022/05/15 07:09:08;;;;;;;0.55;0.55;;;13.20;87.60;;;;;;6271196;28;20237;-68
2022/05/15 07:12:14;;;;;;;0.70;0.70;;;13.30;87.20;;;;;;6270619;28;20239;-67
2022/05/15 07:15:19;;;;;;;0.70;0.70;;;13.10;84.00;;;;;;6271390;28;20204;-67
2022/05/15 07:18:24;;;;;;;0.80;0.80;;;13.10;83.30;;;;;;6270911;28;20246;-68
2022/05/15 07:21:31;;;;;;;0.70;0.70;;;13.20;86.30;;;;;;6271771;28;20580;-69
2022/05/15 07:24:39;;;;;;;0.80;0.68;;;13.30;87.60;;;;;;6270738;28;20233;-70
2022/05/15 07:27:44;;;;;;;0.60;0.60;;;13.40;87.50;;;;;;6270592;28;20227;-68
2022/05/15 07:30:50;;;;;;;0.60;0.60;;;13.40;86.90;;;;;;6271760;28;20507;-68
2022/05/15 07:33:55;;;;;;;0.68;0.60;;;13.50;87.20;;;;;;6271125;28;20238;-69
2022/05/15 07:37:02;;;;;;;1.10;0.60;;;13.60;87.60;;;;;;6275564;28;20208;-67
2022/05/15 07:40:09;;;;;;;0.57;0.50;;;13.80;84.40;;;;;;6275389;28;20274;-69
2022/05/15 07:43:15;;;;;;;0.60;0.60;;;13.80;82.10;;;;;;6275354;28;20307;-68
2022/05/15 07:46:21;;;;;;;0.70;0.70;;;13.70;82.40;;;;;;6276481;28;20203;-67
2022/05/15 07:49:26;;;;;;;0.55;0.55;;;13.60;81.50;;;;;;6275772;28;20246;-68
2022/05/15 07:52:33;;;;;;;0.77;0.77;;;13.60;78.70;;;;;;6275118;28;20227;-70
2022/05/15 07:55:39;;;;;;;0.50;0.50;;;13.50;80.70;;;;;;6275994;28;20551;-68
2022/05/15 07:58:44;;;;;;;0.60;0.60;;;13.60;84.90;;;;;;6275572;28;20254;-69
2022/05/15 08:01:50;;;;;;;0.50;0.50;;;13.50;80.50;;;;;;6276181;28;20231;-68
2022/05/15 08:08:21;;;;;;;0.50;0.50;;;13.60;80.10;;;;;;6275573;28;20262;-69
2022/05/15 08:11:28;;;;;;;0.47;0.47;;;13.70;78.70;;;;;;6274559;28;20242;-68
2022/05/15 08:14:34;;;;;;;1.38;1.05;;;13.80;76.90;;;;;;6275798;28;20678;-68
2022/05/15 08:17:39;;;;;;;0.68;0.68;;;13.90;76.30;;;;;;6274783;28;20224;-68
2022/05/15 08:24:11;;;;;;;0.45;0.45;;;13.60;72.50;;;;;;6275740;28;20234;-69
2022/05/15 08:27:16;;;;;;;1.15;0.80;;;13.70;74.60;;;;;;6278272;28;20642;-67
2022/05/15 08:30:22;;;;;;;0.50;0.50;;;13.70;75.00;;;;;;6281773;28;20617;-68
2022/05/15 08:33:28;;;;;;;1.55;0.70;;;13.60;69.90;;;;;;6277740;28;20227;-67
2022/05/15 08:36:33;;;;;;;0.50;0.50;;;13.50;67.80;;;;;;6279601;28;20204;-68
2022/05/15 08:39:40;;;;;;;0.60;0.60;;;13.50;69.60;;;;;;6279930;28;20312;-68
2022/05/15 08:42:54;;;;;;;1.65;0.60;;;13.50;73.20;;;;;;6282989;28;20231;-68
2022/05/15 08:46:05;;;;;;;1.95;0.77;;;13.60;72.90;;;;;;6276656;28;20551;-68
2022/05/15 08:49:16;;;;;;;0.70;0.70;;;13.60;71.50;;;;;;6274772;28;20238;-69
2022/05/15 08:52:27;;;;;;;1.33;0.57;;;13.60;70.60;;;;;;6274962;28;20214;-68
2022/05/15 08:55:39;;;;;;;0.60;0.60;;;13.60;69.30;;;;;;6275381;28;20551;-68
2022/05/15 08:58:49;;;;;;;0.50;0.50;;;13.60;68.40;;;;;;6274473;28;20236;-70
2022/05/15 09:02:00;;;;;;;0.60;0.60;;;13.50;67.30;;;;;;6274287;28;20227;-68
2022/05/15 09:05:06;;;;;;;0.77;0.50;;;13.60;68.40;;;;;;6274118;28;20223;-68
2022/05/15 09:08:50;;;;;;;0.57;0.57;;;13.60;67.40;;;;;;6273787;28;20576;-68
2022/05/15 09:12:03;;;;;;;0.60;0.60;;;13.70;70.60;;;;;;6273740;28;20227;-67
2022/05/15 09:15:14;;;;;;;0.82;0.50;;;13.80;73.30;;;;;;6273623;28;20584;-67
2022/05/15 09:18:21;;;;;;;1.75;0.50;;;14.00;73.60;;;;;;6273756;28;20247;-68
2022/05/15 09:21:26;;;;;;;0.57;0.57;;;14.10;73.80;;;;;;6273768;28;20223;-68
2022/05/15 09:24:37;;;;;;;0.45;0.45;;;14.20;73.20;;;;;;6255760;28;20224;-68
2022/05/15 09:28:02;;;;;;;1.65;0.45;;;14.30;70.70;;;;;;6273430;28;20271;-68
2022/05/15 09:31:24;;;;;;;1.08;0.40;;;14.30;71.50;;;;;;6273936;28;20204;-68
2022/05/15 09:34:33;;;;;;;1.45;0.32;;;14.50;68.30;;;;;;6274060;28;20223;-67
2022/05/15 09:44:38;;;;;;;1.67;0.65;;;14.50;68.50;;;;;;6273366;28;20239;-68
2022/05/15 09:47:46;;;;;;;1.40;0.50;;;14.60;69.70;;;;;;6272994;28;20228;-69
2022/05/15 09:51:02;;;;;;;1.15;0.40;;;14.60;66.00;;;;;;6273252;28;20200;-68
2022/05/15 09:54:08;;;;;;;0.50;0.50;;;14.60;65.70;;;;;;6273071;28;20599;-67
2022/05/15 09:57:22;;;;;;;0.75;0.60;;;14.50;66.20;;;;;;6272739;28;20211;-68
2022/05/15 10:00:32;;;;;;;1.45;0.40;;;14.60;65.70;;;;;;6272611;28;20204;-68
2022/05/15 10:03:38;;;;;;;0.30;0.30;;;14.70;65.00;;;;;;6272297;28;20235;-68
2022/05/15 10:06:52;;;;;;;0.50;0.50;;;14.70;64.10;;;;;;6273144;28;20562;-69
2022/05/15 10:10:15;;;;;;;0.80;0.80;;;14.60;66.70;;;;;;6272914;28;20246;-67
2022/05/15 10:13:29;;;;;;;0.30;0.30;;;14.60;68.20;;;;;;6272409;28;20243;-67
2022/05/15 10:16:47;;;;;;;0.30;0.30;;;14.80;67.70;;;;;;6274158;28;20203;-68
2022/05/15 10:19:59;;;;;;;0.50;0.50;;;14.90;68.60;;;;;;6265903;28;20326;-66
2022/05/15 10:23:12;;;;;;;1.25;0.50;;;14.90;68.20;;;;;;6292837;28;20236;-65
2022/05/15 10:26:23;;;;;;;0.77;0.77;;;15.10;67.50;;;;;;6286780;28;20539;-68
2022/05/15 10:29:36;;;;;;;1.88;0.57;;;15.10;66.10;;;;;;6272380;28;20224;-68
2022/05/15 10:32:52;;;;;;;1.98;0.50;;;15.10;64.20;;;;;;6271898;28;20240;-69
2022/05/15 10:36:03;;;;;;;0.40;0.40;;;15.10;64.70;;;;;;6272466;28;20204;-68
2022/05/15 10:39:17;;;;;;;0.47;0.47;;;15.10;63.40;;;;;;6271317;28;20236;-66
2022/05/15 10:42:32;;;;;;;0.50;0.50;;;15.10;62.90;;;;;;6271853;28;20661;-69
2022/05/15 10:45:42;;;;;;;0.55;0.55;;;15.20;57.80;;;;;;6272016;28;20204;-68
2022/05/15 10:49:07;;;;;;;3.40;0.80;;;15.20;55.30;;;;;;6271412;28;20290;-68
2022/05/15 10:52:25;;;;;;;0.70;0.70;;;15.30;55.30;;;;;;6271636;28;20317;-70
2022/05/15 10:59:07;;;;;;;0.60;0.60;;;15.40;48.40;;;;;;6271551;28;20594;-69
2022/05/15 11:02:59;;;;;;;0.70;0.70;;;15.40;48.10;;;;;;6271398;28;20220;-69
2022/05/15 11:06:37;;;;;;;0.57;0.40;;;15.50;49.00;;;;;;6272243;28;20650;-68
2022/05/15 11:09:59;;;;;;;3.42;0.70;;;15.70;48.60;;;;;;6271461;28;20262;-68
2022/05/15 11:13:26;;;;;;;2.10;0.70;;;15.70;47.60;;;;;;6273878;28;20250;-69
2022/05/15 11:16:36;;;;;;;0.65;0.50;;;15.50;45.10;;;;;;6271477;28;20208;-68
2022/05/15 11:19:44;;;;;;;0.60;0.60;;;15.70;47.80;;;;;;6271816;28;20255;-68
2022/05/15 11:22:57;;;;;;;5.95;0.50;;;15.80;47.20;;;;;;6271289;28;20232;-67
2022/05/15 11:26:09;;;;;;;2.40;0.50;;;15.90;46.60;;;;;;6272009;28;20215;-67
2022/05/15 11:29:17;;;;;;;1.52;0.60;;;16.10;46.50;;;;;;6271083;28;20232;-67
2022/05/15 11:32:31;;;;;;;1.13;0.95;;;16.20;45.40;;;;;;6271149;28;20214;-67
2022/05/15 11:35:39;;;;;;;0.70;0.70;;;16.10;43.20;;;;;;6272180;28;20590;-68
2022/05/15 11:39:05;;;;;;;0.60;0.60;;;16.10;42.80;;;;;;6270948;28;20713;-68
2022/05/15 11:42:17;;;;;;;0.70;0.70;;;16.20;42.80;;;;;;6271177;28;20208;-68
2022/05/15 11:45:39;;;;;;;1.85;0.65;;;16.30;44.70;;;;;;6252956;28;20294;-68
2022/05/15 11:48:58;;;;;;;3.67;3.38;;;16.50;44.70;;;;;;6252788;28;20239;-68
2022/05/15 11:52:21;;;;;;;4.28;2.58;;;16.40;42.70;;;;;;6271502;28;20204;-67
2022/05/15 11:55:50;;;;;;;1.42;1.42;;;16.40;45.30;;;;;;6268647;28;20217;-65
2022/05/15 11:58:58;;;;;;;0.70;0.65;;;16.70;44.80;;;;;;6270603;28;20227;-67
2022/05/15 12:02:40;;;;;;;2.80;2.80;;;16.70;43.90;;;;;;6271494;28;20204;-68
2022/05/15 12:06:05;;;;;;;1.00;1.00;;;16.80;44.80;;;;;;6270523;28;20205;-68
2022/05/15 12:09:34;;;;;;;0.85;0.82;;;16.90;43.90;;;;;;6271028;28;20232;-68
2022/05/15 12:13:09;;;;;;;0.70;0.70;;;16.60;42.60;;;;;;6246091;28;20232;-68
2022/05/15 12:16:28;;;;;;;1.55;0.80;;;16.70;43.50;;;;;;6247233;28;20298;-69
2022/05/15 12:19:37;;;;;;;0.90;0.90;;;16.80;43.20;;;;;;6246644;28;20237;-67
2022/05/15 12:22:51;;;;;;;2.28;0.80;;;16.90;44.00;;;;;;6248651;28;20237;-67
2022/05/15 12:26:02;;;;;;;0.50;0.50;;;17.10;43.90;;;;;;6252916;28;20220;-67
2022/05/15 12:29:24;;;;;;;0.93;0.93;;;17.20;40.30;;;;;;6251290;28;20236;-67
2022/05/15 12:32:35;;;;;;;0.80;0.80;;;17.30;41.60;;;;;;6250393;28;20227;-68
2022/05/15 12:35:43;;;;;;;0.80;0.80;;;17.40;41.80;;;;;;6251118;28;20209;-68
2022/05/15 12:38:56;;;;;;;0.70;0.70;;;17.50;40.70;;;;;;6248671;28;20235;-68
2022/05/15 12:42:10;;;;;;;1.13;1.13;;;17.60;38.90;;;;;;6251714;28;20200;-68
2022/05/15 12:45:20;;;;;;;1.60;1.10;;;17.70;39.70;;;;;;6251771;28;20228;-68
2022/05/15 12:48:27;;;;;;;1.08;1.05;;;17.60;39.70;;;;;;6250988;28;20633;-67
2022/05/15 12:51:36;;;;;;;0.90;0.80;;;17.50;38.30;;;;;;6251774;28;20204;-67
2022/05/15 12:54:43;;;;;;;2.60;0.80;;;17.60;39.90;;;;;;6250705;28;20691;-67
2022/05/15 12:57:54;;;;;;;1.50;1.50;;;17.70;39.10;;;;;;6249609;28;20308;-69
2022/05/15 13:01:01;;;;;;;1.65;0.70;;;17.70;40.30;;;;;;6250050;28;20328;-67
2022/05/15 13:04:09;;;;;;;1.48;0.88;;;17.90;39.90;;;;;;6249465;28;20236;-67
2022/05/15 13:07:14;;;;;;;1.80;1.17;;;17.80;38.40;;;;;;6249212;28;20208;-70
2022/05/15 13:10:24;;;;;;;1.75;1.20;;;17.90;38.60;;;;;;6258065;28;20200;-68
2022/05/15 13:13:33;;;;;;;1.58;1.48;;;17.80;36.70;;;;;;6273981;28;20255;-68
2022/05/15 13:16:45;;;;;;;5.75;2.20;;;17.90;36.60;;;;;;6274310;28;20215;-68
2022/05/15 13:19:53;;;;;;;0.90;0.90;;;17.90;38.00;;;;;;6273644;28;20235;-68
2022/05/15 13:22:59;;;;;;;1.00;1.00;;;17.60;37.40;;;;;;6273756;28;20310;-68
2022/05/15 13:26:08;;;;;;;2.88;1.35;;;17.20;36.90;;;;;;6273247;28;20228;-69
2022/05/15 13:29:17;;;;;;;2.95;1.65;;;17.30;38.00;;;;;;6273481;28;20232;-68
2022/05/15 13:32:24;;;;;;;3.28;1.05;;;17.50;37.90;;;;;;6272713;28;20240;-68
2022/05/15 13:35:35;;;;;;;1.67;0.93;;;17.40;36.70;;;;;;6273955;28;20522;-69
2022/05/15 13:45:29;;;;;;;2.38;0.70;;;18.30;35.30;;;;;;6272527;28;20650;-67
2022/05/15 13:48:55;;;;;;;1.75;0.73;;;18.10;34.80;;;;;;6271574;28;20227;-69
2022/05/15 13:52:24;;;;;;;3.63;3.53;;;18.20;36.20;;;;;;6273385;28;20214;-69
2022/05/15 13:55:40;;;;;;;1.15;1.15;;;18.20;36.40;;;;;;6273903;28;20208;-68
2022/05/15 13:58:50;;;;;;;0.60;0.60;;;18.20;34.40;;;;;;6273296;28;20304;-68
2022/05/15 14:02:10;;;;;;;1.45;1.45;;;18.20;35.10;;;;;;6273413;28;20200;-68
2022/05/15 14:05:18;;;;;;;1.33;1.30;;;18.30;35.40;;;;;;6272500;28;20234;-69
2022/05/15 14:08:25;;;;;;;1.27;1.27;;;18.30;34.20;;;;;;6273270;28;20240;-69
2022/05/15 14:11:54;;;;;;;1.75;1.48;;;18.20;33.40;;;;;;6263757;28;20224;-68
2022/05/15 14:15:05;;;;;;;1.75;1.08;;;18.30;34.30;;;;;;6249162;28;20239;-70
2022/05/15 14:18:28;;;;;;;3.63;0.80;;;18.80;33.90;;;;;;6248794;28;20608;-68
2022/05/15 14:21:34;;;;;;;0.90;0.82;;;18.40;32.80;;;;;;6248392;28;20200;-68
2022/05/15 14:24:39;;;;;;;1.70;1.00;;;18.30;33.70;;;;;;6248068;28;20606;-68
2022/05/15 14:27:45;;;;;;;1.88;0.77;;;18.50;34.10;;;;;;6248383;28;20247;-68
2022/05/15 14:30:51;;;;;;;1.10;1.10;;;18.30;34.10;;;;;;6248564;28;20244;-68
2022/05/15 14:33:57;;;;;;;1.10;1.10;;;18.20;34.80;;;;;;6248051;28;20717;-69
2022/05/15 14:37:02;;;;;;;1.00;1.00;;;17.90;34.90;;;;;;6248475;28;20216;-69
2022/05/15 14:40:12;;;;;;;3.05;1.40;;;17.60;35.10;;;;;;6247584;28;20217;-68
2022/05/15 14:43:18;;;;;;;1.75;1.13;;;17.50;35.30;;;;;;6247656;28;20587;-69
2022/05/15 14:46:28;;;;;;;1.85;1.85;;;17.50;36.20;;;;;;6247173;28;20216;-68
2022/05/15 14:49:35;;;;;;;0.85;0.85;;;17.30;36.00;;;;;;6247783;28;20243;-68
2022/05/15 14:52:41;;;;;;;0.90;0.90;;;17.20;35.90;;;;;;6247771;28;20228;-68
2022/05/15 14:59:14;;;;;;;1.58;1.58;;;17.10;35.30;;;;;;6248668;28;20251;-68
2022/05/15 15:02:22;;;;;;;5.80;1.98;;;17.20;35.80;;;;;;6247433;28;20204;-69
2022/05/15 15:05:28;;;;;;;12.98;3.17;;;17.30;35.50;;;;;;6248041;28;20220;-68
2022/05/15 15:08:34;;;;;;;5.15;1.85;;;17.20;35.40;;;;;;6247717;28;20235;-68
2022/05/15 15:11:47;;;;;;;2.63;1.40;;;17.20;36.70;;;;;;6258866;28;20228;-69
2022/05/15 15:14:53;;;;;;;0.85;0.85;;;17.30;36.80;;;;;;6271972;28;20651;-68
2022/05/15 15:17:59;;;;;;;1.23;1.23;;;17.20;36.30;;;;;;6271428;28;20239;-69
2022/05/15 15:21:06;;;;;;;2.08;1.13;;;17.20;37.10;;;;;;6272562;28;20635;-67
2022/05/15 15:24:12;;;;;;;1.25;1.00;;;17.10;37.20;;;;;;6271985;28;20236;-68
2022/05/15 15:27:18;;;;;;;1.60;1.60;;;17.10;37.10;;;;;;6271464;28;20537;-69
2022/05/15 15:30:24;;;;;;;1.42;0.80;;;17.10;37.50;;;;;;6270772;28;20212;-69
2022/05/15 15:33:30;;;;;;;0.88;0.88;;;16.70;44.80;;;;;;6271551;28;20699;-68
2022/05/15 15:36:41;;;;;;;0.75;0.75;;;16.60;47.60;;;;;;6272457;28;20250;-70
2022/05/15 15:39:47;;;;;;;0.60;0.60;;;16.20;49.40;;;;;;6272374;28;20246;-69
2022/05/15 15:42:52;;;;;;;0.60;0.60;;;15.90;50.90;;;;;;6272999;28;20238;-68
2022/05/15 15:45:58;;;;;;;1.42;0.60;;;15.80;50.90;;;;;;6286842;28;20211;-69
2022/05/15 15:49:05;;;;;;;0.60;0.60;;;15.80;51.30;;;;;;6296805;28;20314;-68
2022/05/15 15:52:10;;;;;;;0.77;0.77;;;15.80;51.90;;;;;;6294938;28;20326;-68
2022/05/15 15:55:15;;;;;;;0.60;0.60;;;15.60;52.40;;;;;;6274811;28;20208;-69
2022/05/15 15:58:21;;;;;;;0.50;0.50;;;15.50;52.80;;;;;;6279464;28;20227;-68
2022/05/15 16:01:30;;;;;;;0.52;0.52;;;15.40;54.00;;;;;;6277978;28;20204;-68
2022/05/15 16:04:36;;;;;;;6.93;0.80;;;15.40;53.80;;;;;;6276359;28;20239;-68
2022/05/15 16:07:42;;;;;;;0.60;0.60;;;15.30;54.70;;;;;;6275220;28;20236;-68
2022/05/15 16:10:47;;;;;;;0.70;0.70;;;15.40;54.50;;;;;;6276520;28;20682;-69
2022/05/15 16:13:53;;;;;;;0.77;0.75;;;15.40;54.70;;;;;;6275768;28;20239;-70
2022/05/15 16:17:00;;;;;;;0.45;0.45;;;15.10;55.20;;;;;;6275967;28;20212;-68
2022/05/15 16:20:11;;;;;;;1.77;0.60;;;15.10;55.20;;;;;;6274910;28;20208;-67
2022/05/15 16:23:19;;;;;;;0.90;0.90;;;15.10;55.50;;;;;;6275005;28;20694;-67
2022/05/15 16:26:25;;;;;;;0.52;0.47;;;15.00;55.80;;;;;;6275501;28;20224;-69
2022/05/15 16:29:31;;;;;;;0.93;0.70;;;14.80;56.70;;;;;;6275051;28;20250;-68
2022/05/15 16:32:42;;;;;;;1.75;0.70;;;14.70;57.50;;;;;;6274806;28;20231;-68
2022/05/15 16:35:50;;;;;;;1.02;0.90;;;14.70;57.70;;;;;;6274699;28;20204;-67
2022/05/15 16:38:56;;;;;;;0.68;0.68;;;14.70;59.20;;;;;;6274291;28;20232;-67
2022/05/15 16:42:01;;;;;;;0.60;0.60;;;14.70;58.50;;;;;;6275304;28;20207;-69
2022/05/15 16:45:11;;;;;;;1.85;0.63;;;14.50;58.80;;;;;;6273703;28;20208;-69
2022/05/15 16:48:18;;;;;;;0.88;0.82;;;14.50;58.90;;;;;;6273962;28;20236;-68
2022/05/15 16:51:25;;;;;;;0.70;0.60;;;14.50;59.90;;;;;;6274805;28;20212;-69
2022/05/15 16:54:30;;;;;;;1.00;1.00;;;14.50;60.90;;;;;;6274357;28;20694;-68
2022/05/15 16:57:35;;;;;;;0.80;0.80;;;14.30;59.30;;;;;;6274543;28;20691;-69
2022/05/15 17:00:42;;;;;;;0.80;0.80;;;14.20;59.60;;;;;;6274555;28;20556;-67
2022/05/15 17:03:48;;;;;;;1.55;0.60;;;14.00;61.40;;;;;;6274387;28;20236;-68